sensor_id;sensor_type;location;lat;lon;timestamp;pressure;altitude;pressure_sealevel;temperature;humidity
74242;BME280;62599;49.146;10.426;2023-07-28T00:00:47;95090.16;;;15.08;100.00
74242;BME280;62599;49.146;10.426;2023-07-28T00:03:13;95083.97;;;15.07;100.00
74242;BME280;62599;49.146;10.426;2023-07-28T00:05:38;95086.28;;;15.09;100.00
74242;BME280;62599;49.146;10.426;2023-07-28T00:08:03;95087.06;;;15.09;100.00
74242;BME280;62599;49.146;10.426;2023-07-28T00:10:29;95080.47;;;15.10;100.00
74242;BME280;62599;49.146;10.426;2023-07-28T00:12:55;95072.34;;;15.10;100.00
74242;BME280;62599;49.146;10.426;2023-07-28T00:15:21;95073.91;;;15.08;100.00
74242;BME280;62599;49.146;10.426;2023-07-28T00:17:46;95076.22;;;15.09;100.00
74242;BME280;62599;49.146;10.426;2023-07-28T00:20:11;95078.56;;;15.11;100.00
74242;BME280;62599;49.146;10.426;2023-07-28T00:22:37;95073.91;;;15.08;100.00
74242;BME280;62599;49.146;10.426;2023-07-28T00:25:02;95075.81;;;15.07;100.00
74242;BME280;62599;49.146;10.426;2023-07-28T00:27:28;95075.03;;;15.07;100.00
74242;BME280;62599;49.146;10.426;2023-07-28T00:29:53;95068.09;;;15.09;100.00
74242;BME280;62599;49.146;10.426;2023-07-28T00:32:18;95068.44;;;15.04;100.00
74242;BME280;62599;49.146;10.426;2023-07-28T00:34:44;95074.59;;;15.01;100.00
74242;BME280;62599;49.146;10.426;2023-07-28T00:37:09;95074.59;;;15.01;100.00
74242;BME280;62599;49.146;10.426;2023-07-28T00:39:35;95076.13;;;14.99;100.00
74242;BME280;62599;49.146;10.426;2023-07-28T00:42:00;95083.13;;;15.00;100.00
74242;BME280;62599;49.146;10.426;2023-07-28T00:44:26;95087.75;;;14.99;100.00
74242;BME280;62599;49.146;10.426;2023-07-28T00:46:51;95081.56;;;14.99;100.00
74242;BME280;62599;49.146;10.426;2023-07-28T00:49:17;95074.19;;;14.99;100.00
74242;BME280;62599;49.146;10.426;2023-07-28T00:51:42;95078.88;;;15.02;100.00
74242;BME280;62599;49.146;10.426;2023-07-28T00:54:08;95079.63;;;14.99;100.00
74242;BME280;62599;49.146;10.426;2023-07-28T00:56:33;95079.22;;;14.97;100.00
74242;BME280;62599;49.146;10.426;2023-07-28T00:58:59;95085.81;;;14.96;100.00
74242;BME280;62599;49.146;10.426;2023-07-28T01:01:24;95075.31;;;14.95;100.00
74242;BME280;62599;49.146;10.426;2023-07-28T01:03:51;95086.16;;;14.95;100.00
74242;BME280;62599;49.146;10.426;2023-07-28T01:06:44;95080.75;;;14.95;100.00
74242;BME280;62599;49.146;10.426;2023-07-28T01:09:18;95082.28;;;14.96;100.00
74242;BME280;62599;49.146;10.426;2023-07-28T01:11:54;95085.38;;;14.94;100.00
74242;BME280;62599;49.146;10.426;2023-07-28T01:14:20;95077.69;;;14.96;100.00
74242;BME280;62599;49.146;10.426;2023-07-28T01:16:45;95076.50;;;14.97;100.00
74242;BME280;62599;49.146;10.426;2023-07-28T01:19:11;95071.16;;;15.04;100.00
74242;BME280;62599;49.146;10.426;2023-07-28T01:21:39;95069.25;;;15.08;100.00
74242;BME280;62599;49.146;10.426;2023-07-28T01:24:22;95069.25;;;15.08;100.00
74242;BME280;62599;49.146;10.426;2023-07-28T01:26:53;95066.81;;;14.96;100.00
74242;BME280;62599;49.146;10.426;2023-07-28T01:29:19;95068.31;;;14.90;100.00
74242;BME280;62599;49.146;10.426;2023-07-28T01:31:47;95062.09;;;14.86;100.00
74242;BME280;62599;49.146;10.426;2023-07-28T01:34:15;95058.97;;;14.84;100.00
74242;BME280;62599;49.146;10.426;2023-07-28T01:36:40;95065.13;;;14.81;100.00
74242;BME280;62599;49.146;10.426;2023-07-28T01:39:06;95065.16;;;14.84;100.00
74242;BME280;62599;49.146;10.426;2023-07-28T01:41:31;95060.84;;;14.80;100.00
74242;BME280;62599;49.146;10.426;2023-07-28T01:43:56;95060.41;;;14.74;100.00
74242;BME280;62599;49.146;10.426;2023-07-28T01:46:22;95069.34;;;14.75;100.00
74242;BME280;62599;49.146;10.426;2023-07-28T01:48:47;95070.13;;;14.75;100.00
74242;BME280;62599;49.146;10.426;2023-07-28T01:51:13;95071.63;;;14.73;100.00
74242;BME280;62599;49.146;10.426;2023-07-28T01:53:38;95067.38;;;14.72;100.00
74242;BME280;62599;49.146;10.426;2023-07-28T01:56:04;95071.25;;;14.71;100.00
74242;BME280;62599;49.146;10.426;2023-07-28T01:58:29;95062.31;;;14.70;100.00
74242;BME280;62599;49.146;10.426;2023-07-28T02:00:55;95069.66;;;14.69;100.00
74242;BME280;62599;49.146;10.426;2023-07-28T02:03:20;95065.81;;;14.71;100.00
74242;BME280;62599;49.146;10.426;2023-07-28T02:05:45;95067.38;;;14.72;100.00
74242;BME280;62599;49.146;10.426;2023-07-28T02:08:11;95058.09;;;14.73;100.00
74242;BME280;62599;49.146;10.426;2023-07-28T02:13:11;95063.19;;;14.81;100.00
74242;BME280;62599;49.146;10.426;2023-07-28T02:15:37;95062.41;;;14.81;100.00
74242;BME280;62599;49.146;10.426;2023-07-28T02:18:02;95055.84;;;14.82;100.00
74242;BME280;62599;49.146;10.426;2023-07-28T02:20:27;95044.97;;;14.78;100.00
74242;BME280;62599;49.146;10.426;2023-07-28T02:22:53;95051.88;;;14.72;100.00
74242;BME280;62599;49.146;10.426;2023-07-28T02:25:18;95050.31;;;14.67;100.00
74242;BME280;62599;49.146;10.426;2023-07-28T02:27:44;95052.53;;;14.58;100.00
74242;BME280;62599;49.146;10.426;2023-07-28T02:30:09;95049.00;;;14.54;100.00
74242;BME280;62599;49.146;10.426;2023-07-28T02:32:37;95046.25;;;14.51;100.00
74242;BME280;62599;49.146;10.426;2023-07-28T02:35:03;95045.78;;;14.45;100.00
74242;BME280;62599;49.146;10.426;2023-07-28T02:37:28;95043.78;;;14.38;100.00
74242;BME280;62599;49.146;10.426;2023-07-28T02:39:53;95049.94;;;14.35;100.00
74242;BME280;62599;49.146;10.426;2023-07-28T02:42:19;95053.00;;;14.34;100.00
74242;BME280;62599;49.146;10.426;2023-07-28T02:44:44;95059.59;;;14.33;100.00
74242;BME280;62599;49.146;10.426;2023-07-28T02:47:10;95065.03;;;14.36;100.00
74242;BME280;62599;49.146;10.426;2023-07-28T02:49:35;95050.66;;;14.29;100.00
74242;BME280;62599;49.146;10.426;2023-07-28T02:52:01;95061.09;;;14.30;100.00
74242;BME280;62599;49.146;10.426;2023-07-28T02:54:28;95063.03;;;14.30;100.00
74242;BME280;62599;49.146;10.426;2023-07-28T02:56:53;95062.63;;;14.28;100.00
74242;BME280;62599;49.146;10.426;2023-07-28T02:59:19;95061.06;;;14.27;100.00
74242;BME280;62599;49.146;10.426;2023-07-28T03:01:44;95063.00;;;14.26;100.00
74242;BME280;62599;49.146;10.426;2023-07-28T03:04:10;95069.94;;;14.24;100.00
74242;BME280;62599;49.146;10.426;2023-07-28T03:06:35;95066.09;;;14.25;100.00
74242;BME280;62599;49.146;10.426;2023-07-28T03:09:01;95064.94;;;14.26;100.00
74242;BME280;62599;49.146;10.426;2023-07-28T03:11:26;95074.22;;;14.25;100.00
74242;BME280;62599;49.146;10.426;2023-07-28T03:13:51;95061.41;;;14.21;100.00
74242;BME280;62599;49.146;10.426;2023-07-28T03:16:17;95063.69;;;14.19;100.00
74242;BME280;62599;49.146;10.426;2023-07-28T03:18:42;95061.75;;;14.16;100.00
74242;BME280;62599;49.146;10.426;2023-07-28T03:21:11;95070.66;;;14.17;100.00
74242;BME280;62599;49.146;10.426;2023-07-28T03:23:36;95075.28;;;14.16;100.00
74242;BME280;62599;49.146;10.426;2023-07-28T03:26:01;95084.59;;;14.19;100.00
74242;BME280;62599;49.146;10.426;2023-07-28T03:28:27;95078.78;;;14.17;100.00
74242;BME280;62599;49.146;10.426;2023-07-28T03:30:52;95086.91;;;14.17;100.00
74242;BME280;62599;49.146;10.426;2023-07-28T03:33:18;95096.56;;;14.18;100.00
74242;BME280;62599;49.146;10.426;2023-07-28T03:35:43;95098.09;;;14.15;100.00
74242;BME280;62599;49.146;10.426;2023-07-28T03:38:09;95089.19;;;14.15;100.00
74242;BME280;62599;49.146;10.426;2023-07-28T03:40:34;95089.97;;;14.15;100.00
74242;BME280;62599;49.146;10.426;2023-07-28T03:43:00;95087.97;;;14.12;100.00
74242;BME280;62599;49.146;10.426;2023-07-28T03:45:25;95087.59;;;14.10;100.00
74242;BME280;62599;49.146;10.426;2023-07-28T03:47:51;95102.63;;;14.08;100.00
74242;BME280;62599;49.146;10.426;2023-07-28T03:50:16;95102.28;;;14.09;100.00
74242;BME280;62599;49.146;10.426;2023-07-28T03:52:41;95103.06;;;14.10;100.00
74242;BME280;62599;49.146;10.426;2023-07-28T03:55:07;95105.38;;;14.11;100.00
74242;BME280;62599;49.146;10.426;2023-07-28T03:57:32;95102.72;;;14.15;100.00
74242;BME280;62599;49.146;10.426;2023-07-28T03:59:57;95098.09;;;14.15;100.00
74242;BME280;62599;49.146;10.426;2023-07-28T04:02:23;95098.50;;;14.17;100.00
74242;BME280;62599;49.146;10.426;2023-07-28T04:04:54;95105.94;;;14.24;100.00
74242;BME280;62599;49.146;10.426;2023-07-28T04:07:20;95110.66;;;14.31;100.00
74242;BME280;62599;49.146;10.426;2023-07-28T04:09:45;95113.47;;;14.38;100.00
74242;BME280;62599;49.146;10.426;2023-07-28T04:12:10;95118.91;;;14.41;100.00
74242;BME280;62599;49.146;10.426;2023-07-28T04:14:36;95122.06;;;14.47;100.00
74242;BME280;62599;49.146;10.426;2023-07-28T04:17:01;95122.13;;;14.51;100.00
74242;BME280;62599;49.146;10.426;2023-07-28T04:19:27;95121.41;;;14.54;100.00
74242;BME280;62599;49.146;10.426;2023-07-28T04:21:57;95125.66;;;14.55;100.00
74242;BME280;62599;49.146;10.426;2023-07-28T04:24:22;95120.66;;;14.57;100.00
74242;BME280;62599;49.146;10.426;2023-07-28T04:26:48;95115.63;;;14.59;100.00
74242;BME280;62599;49.146;10.426;2023-07-28T04:29:14;95118.44;;;14.66;100.00
74242;BME280;62599;49.146;10.426;2023-07-28T04:31:39;95117.69;;;14.69;100.00
74242;BME280;62599;49.146;10.426;2023-07-28T04:34:05;95116.19;;;14.72;100.00
74242;BME280;62599;49.146;10.426;2023-07-28T04:36:30;95127.44;;;14.77;100.00
74242;BME280;62599;49.146;10.426;2023-07-28T04:38:55;95123.22;;;14.80;100.00
74242;BME280;62599;49.146;10.426;2023-07-28T04:41:21;95122.06;;;14.81;100.00
74242;BME280;62599;49.146;10.426;2023-07-28T04:43:46;95110.81;;;14.79;100.00
74242;BME280;62599;49.146;10.426;2023-07-28T04:46:11;95121.31;;;14.84;100.00
74242;BME280;62599;49.146;10.426;2023-07-28T04:48:37;95118.22;;;14.82;100.00
74242;BME280;62599;49.146;10.426;2023-07-28T04:51:02;95122.47;;;14.83;100.00
74242;BME280;62599;49.146;10.426;2023-07-28T04:53:27;95111.63;;;14.83;100.00
74242;BME280;62599;49.146;10.426;2023-07-28T04:55:53;95115.56;;;14.89;100.00
74242;BME280;62599;49.146;10.426;2023-07-28T04:58:18;95114.88;;;14.99;100.00
74242;BME280;62599;49.146;10.426;2023-07-28T05:00:43;95107.97;;;15.05;100.00
74242;BME280;62599;49.146;10.426;2023-07-28T05:03:09;95108.81;;;15.13;100.00
74242;BME280;62599;49.146;10.426;2023-07-28T05:05:34;95116.66;;;15.22;100.00
74242;BME280;62599;49.146;10.426;2023-07-28T05:08:00;95116.25;;;15.23;100.00
74242;BME280;62599;49.146;10.426;2023-07-28T05:10:25;95116.66;;;15.22;100.00
74242;BME280;62599;49.146;10.426;2023-07-28T05:12:50;95112.75;;;15.19;100.00
74242;BME280;62599;49.146;10.426;2023-07-28T05:15:17;95111.97;;;15.19;100.00
74242;BME280;62599;49.146;10.426;2023-07-28T05:17:43;95103.41;;;15.16;100.00
74242;BME280;62599;49.146;10.426;2023-07-28T05:20:08;95100.34;;;15.18;100.00
74242;BME280;62599;49.146;10.426;2023-07-28T05:22:35;95093.34;;;15.21;100.00
74242;BME280;62599;49.146;10.426;2023-07-28T05:25:02;95113.97;;;15.25;100.00
74242;BME280;62599;49.146;10.426;2023-07-28T05:27:27;95117.44;;;15.26;100.00
74242;BME280;62599;49.146;10.426;2023-07-28T05:29:53;95118.25;;;15.30;100.00
74242;BME280;62599;49.146;10.426;2023-07-28T05:32:18;95114.00;;;15.32;100.00
74242;BME280;62599;49.146;10.426;2023-07-28T05:34:44;95123.31;;;15.35;100.00
74242;BME280;62599;49.146;10.426;2023-07-28T05:37:10;95118.69;;;15.39;100.00
74242;BME280;62599;49.146;10.426;2023-07-28T05:39:36;95120.72;;;15.49;100.00
74242;BME280;62599;49.146;10.426;2023-07-28T05:42:01;95123.09;;;15.54;100.00
74242;BME280;62599;49.146;10.426;2023-07-28T05:44:27;95116.13;;;15.57;100.00
74242;BME280;62599;49.146;10.426;2023-07-28T05:46:52;95118.06;;;15.56;100.00
74242;BME280;62599;49.146;10.426;2023-07-28T05:49:18;95125.81;;;15.54;100.00
74242;BME280;62599;49.146;10.426;2023-07-28T05:51:43;95117.69;;;15.58;100.00
74242;BME280;62599;49.146;10.426;2023-07-28T05:54:09;95116.91;;;15.61;100.00
74242;BME280;62599;49.146;10.426;2023-07-28T05:56:34;95115.44;;;15.67;100.00
74242;BME280;62599;49.146;10.426;2023-07-28T05:59:00;95117.81;;;15.76;100.00
74242;BME280;62599;49.146;10.426;2023-07-28T06:01:25;95121.78;;;15.89;100.00
74242;BME280;62599;49.146;10.426;2023-07-28T06:03:52;95126.91;;;16.01;100.00
74242;BME280;62599;49.146;10.426;2023-07-28T06:06:20;95132.78;;;16.14;100.00
74242;BME280;62599;49.146;10.426;2023-07-28T06:08:46;95131.28;;;16.20;100.00
74242;BME280;62599;49.146;10.426;2023-07-28T06:11:11;95130.09;;;16.21;100.00
74242;BME280;62599;49.146;10.426;2023-07-28T06:13:37;95141.44;;;16.30;100.00
74242;BME280;62599;49.146;10.426;2023-07-28T06:16:02;95142.22;;;16.38;100.00
74242;BME280;62599;49.146;10.426;2023-07-28T06:18:27;95148.47;;;16.42;100.00
74242;BME280;62599;49.146;10.426;2023-07-28T06:20:53;95153.13;;;16.45;100.00
74242;BME280;62599;49.146;10.426;2023-07-28T06:23:18;95152.78;;;16.54;100.00
74242;BME280;62599;49.146;10.426;2023-07-28T06:25:43;95155.50;;;16.57;100.00
74242;BME280;62599;49.146;10.426;2023-07-28T06:28:11;95164.84;;;16.60;100.00
74242;BME280;62599;49.146;10.426;2023-07-28T06:30:37;95165.22;;;16.58;100.00
74242;BME280;62599;49.146;10.426;2023-07-28T06:33:05;95169.50;;;16.56;100.00
74242;BME280;62599;49.146;10.426;2023-07-28T06:35:31;95175.69;;;16.53;100.00
74242;BME280;62599;49.146;10.426;2023-07-28T06:37:56;95181.47;;;16.48;100.00
74242;BME280;62599;49.146;10.426;2023-07-28T06:40:22;95181.13;;;16.49;100.00
74242;BME280;62599;49.146;10.426;2023-07-28T06:42:47;95180.72;;;16.47;100.00
74242;BME280;62599;49.146;10.426;2023-07-28T06:45:12;95185.75;;;16.45;100.00
74242;BME280;62599;49.146;10.426;2023-07-28T06:47:39;95179.16;;;16.46;100.00
74242;BME280;62599;49.146;10.426;2023-07-28T06:50:05;95188.91;;;16.54;100.00
74242;BME280;62599;49.146;10.426;2023-07-28T06:52:30;95195.13;;;16.62;100.00
74242;BME280;62599;49.146;10.426;2023-07-28T06:54:56;95195.53;;;16.60;100.00
74242;BME280;62599;49.146;10.426;2023-07-28T06:57:21;95192.81;;;16.60;100.00
74242;BME280;62599;49.146;10.426;2023-07-28T06:59:47;95196.72;;;16.63;100.00
74242;BME280;62599;49.146;10.426;2023-07-28T07:02:13;95199.06;;;16.72;100.00
74242;BME280;62599;49.146;10.426;2023-07-28T07:04:38;95201.09;;;16.82;100.00
74242;BME280;62599;49.146;10.426;2023-07-28T07:07:04;95198.75;;;16.88;100.00
74242;BME280;62599;49.146;10.426;2023-07-28T07:09:29;95200.75;;;17.01;100.00
74242;BME280;62599;49.146;10.426;2023-07-28T07:11:54;95194.56;;;17.12;100.00
74242;BME280;62599;49.146;10.426;2023-07-28T07:14:20;95192.66;;;17.26;100.00
74242;BME280;62599;49.146;10.426;2023-07-28T07:16:45;95193.44;;;17.34;100.00
74242;BME280;62599;49.146;10.426;2023-07-28T07:19:11;95204.31;;;17.34;100.00
74242;BME280;62599;49.146;10.426;2023-07-28T07:21:38;95199.28;;;17.40;100.00
74242;BME280;62599;49.146;10.426;2023-07-28T07:24:04;95202.38;;;17.49;100.00
74242;BME280;62599;49.146;10.426;2023-07-28T07:26:29;95200.44;;;17.46;100.00
74242;BME280;62599;49.146;10.426;2023-07-28T07:28:56;95201.22;;;17.46;100.00
74242;BME280;62599;49.146;10.426;2023-07-28T07:31:21;95198.50;;;17.46;100.00
74242;BME280;62599;49.146;10.426;2023-07-28T07:33:47;95218.38;;;17.50;100.00
74242;BME280;62599;49.146;10.426;2023-07-28T07:36:18;95214.03;;;17.42;100.00
74242;BME280;62599;49.146;10.426;2023-07-28T07:38:44;95219.50;;;17.42;100.00
74242;BME280;62599;49.146;10.426;2023-07-28T07:41:12;95211.75;;;17.59;100.00
74242;BME280;62599;49.146;10.426;2023-07-28T07:43:38;95214.09;;;17.78;100.00
74242;BME280;62599;49.146;10.426;2023-07-28T07:46:04;95220.31;;;18.03;100.00
74242;BME280;62599;49.146;10.426;2023-07-28T07:48:29;95215.59;;;18.33;100.00
74242;BME280;62599;49.146;10.426;2023-07-28T07:50:55;95222.53;;;18.73;100.00
74242;BME280;62599;49.146;10.426;2023-07-28T07:53:20;95226.31;;;19.04;100.00
74242;BME280;62599;49.146;10.426;2023-07-28T07:55:46;95223.06;;;19.27;100.00
74242;BME280;62599;49.146;10.426;2023-07-28T07:58:11;95219.88;;;19.39;100.00
74242;BME280;62599;49.146;10.426;2023-07-28T08:00:37;95224.22;;;19.30;100.00
74242;BME280;62599;49.146;10.426;2023-07-28T08:03:03;95229.75;;;19.19;100.00
74242;BME280;62599;49.146;10.426;2023-07-28T08:05:30;95234.16;;;18.91;100.00
74242;BME280;62599;49.146;10.426;2023-07-28T08:07:55;95240.88;;;18.55;100.00
74242;BME280;62599;49.146;10.426;2023-07-28T08:10:20;95248.75;;;18.27;100.00
74242;BME280;62599;49.146;10.426;2023-07-28T08:12:46;95232.00;;;18.04;100.00
74242;BME280;62599;49.146;10.426;2023-07-28T08:15:12;95236.69;;;18.00;100.00
74242;BME280;62599;49.146;10.426;2023-07-28T08:17:38;95233.56;;;18.12;100.00
74242;BME280;62599;49.146;10.426;2023-07-28T08:20:04;95237.41;;;18.36;100.00
74242;BME280;62599;49.146;10.426;2023-07-28T08:22:30;95228.03;;;18.51;100.00
74242;BME280;62599;49.146;10.426;2023-07-28T08:24:56;95231.13;;;18.75;100.00
74242;BME280;62599;49.146;10.426;2023-07-28T08:27:21;95232.94;;;19.10;100.00
74242;BME280;62599;49.146;10.426;2023-07-28T08:29:46;95233.06;;;19.52;100.00
74242;BME280;62599;49.146;10.426;2023-07-28T08:32:12;95229.09;;;19.67;99.58
74242;BME280;62599;49.146;10.426;2023-07-28T08:34:37;95234.56;;;19.67;99.73
74242;BME280;62599;49.146;10.426;2023-07-28T08:37:02;95230.59;;;19.71;100.00
74242;BME280;62599;49.146;10.426;2023-07-28T08:39:28;95236.19;;;19.54;97.94
74242;BME280;62599;49.146;10.426;2023-07-28T08:42:01;95239.81;;;19.36;99.28
74242;BME280;62599;49.146;10.426;2023-07-28T08:44:30;95234.09;;;19.09;99.32
74242;BME280;62599;49.146;10.426;2023-07-28T08:46:56;95240.47;;;18.74;99.84
74242;BME280;62599;49.146;10.426;2023-07-28T08:49:21;95253.38;;;18.48;100.00
74242;BME280;62599;49.146;10.426;2023-07-28T08:51:50;95246.78;;;18.32;100.00
74242;BME280;62599;49.146;10.426;2023-07-28T08:54:16;95245.22;;;18.31;100.00
74242;BME280;62599;49.146;10.426;2023-07-28T08:56:45;95253.78;;;18.40;100.00
74242;BME280;62599;49.146;10.426;2023-07-28T08:59:10;95260.78;;;18.44;100.00
74242;BME280;62599;49.146;10.426;2023-07-28T09:01:39;95257.69;;;18.39;100.00
74242;BME280;62599;49.146;10.426;2023-07-28T09:04:10;95268.22;;;18.08;100.00
74242;BME280;62599;49.146;10.426;2023-07-28T09:06:36;95267.06;;;17.80;100.00
74242;BME280;62599;49.146;10.426;2023-07-28T09:09:01;95266.63;;;17.71;100.00
74242;BME280;62599;49.146;10.426;2023-07-28T09:11:26;95275.59;;;17.83;100.00
74242;BME280;62599;49.146;10.426;2023-07-28T09:13:54;95263.94;;;18.11;100.00
74242;BME280;62599;49.146;10.426;2023-07-28T09:16:21;95276.38;;;18.22;100.00
74242;BME280;62599;49.146;10.426;2023-07-28T09:18:47;95278.34;;;18.18;100.00
74242;BME280;62599;49.146;10.426;2023-07-28T09:21:17;95274.84;;;18.14;100.00
74242;BME280;62599;49.146;10.426;2023-07-28T09:23:43;95269.38;;;18.14;100.00
74242;BME280;62599;49.146;10.426;2023-07-28T09:26:09;95276.78;;;18.14;100.00
74242;BME280;62599;49.146;10.426;2023-07-28T09:28:38;95287.28;;;18.33;100.00
74242;BME280;62599;49.146;10.426;2023-07-28T09:31:05;95286.50;;;18.22;100.00
74242;BME280;62599;49.146;10.426;2023-07-28T09:33:35;95285.75;;;18.07;100.00
74242;BME280;62599;49.146;10.426;2023-07-28T09:36:11;95289.63;;;17.99;100.00
74242;BME280;62599;49.146;10.426;2023-07-28T09:38:41;95286.13;;;17.91;100.00
74242;BME280;62599;49.146;10.426;2023-07-28T09:41:08;95283.41;;;17.84;100.00
74242;BME280;62599;49.146;10.426;2023-07-28T09:43:39;95288.84;;;17.91;100.00
74242;BME280;62599;49.146;10.426;2023-07-28T09:46:09;95293.16;;;18.21;100.00
74242;BME280;62599;49.146;10.426;2023-07-28T09:48:34;95291.56;;;18.52;100.00
74242;BME280;62599;49.146;10.426;2023-07-28T09:51:12;95282.16;;;18.85;100.00
74242;BME280;62599;49.146;10.426;2023-07-28T09:53:53;95286.81;;;18.92;100.00
74242;BME280;62599;49.146;10.426;2023-07-28T09:56:22;95292.63;;;19.05;99.73
74242;BME280;62599;49.146;10.426;2023-07-28T09:58:50;95285.09;;;19.27;100.00
74242;BME280;62599;49.146;10.426;2023-07-28T10:01:17;95286.22;;;19.43;100.00
74242;BME280;62599;49.146;10.426;2023-07-28T10:03:42;95302.13;;;19.63;99.99
74242;BME280;62599;49.146;10.426;2023-07-28T10:06:08;95289.13;;;19.81;95.02
74242;BME280;62599;49.146;10.426;2023-07-28T10:08:34;95295.59;;;20.05;96.16
74242;BME280;62599;49.146;10.426;2023-07-28T10:11:09;95290.13;;;20.54;96.04
74242;BME280;62599;49.146;10.426;2023-07-28T10:13:54;95290.06;;;20.95;90.45
74242;BME280;62599;49.146;10.426;2023-07-28T10:16:20;95294.03;;;21.28;89.01
74242;BME280;62599;49.146;10.426;2023-07-28T10:18:54;95301.63;;;21.48;87.64
74242;BME280;62599;49.146;10.426;2023-07-28T10:21:20;95296.75;;;21.28;85.01
74242;BME280;62599;49.146;10.426;2023-07-28T10:23:55;95308.66;;;21.49;86.38
74242;BME280;62599;49.146;10.426;2023-07-28T10:26:35;95303.25;;;21.42;85.00
74242;BME280;62599;49.146;10.426;2023-07-28T10:29:12;95313.06;;;21.43;84.92
74242;BME280;62599;49.146;10.426;2023-07-28T10:31:52;95320.81;;;21.13;86.94
74242;BME280;62599;49.146;10.426;2023-07-28T10:34:21;95307.34;;;21.26;84.82
74242;BME280;62599;49.146;10.426;2023-07-28T10:36:56;95317.69;;;21.46;82.20
74242;BME280;62599;49.146;10.426;2023-07-28T10:39:22;95315.53;;;21.60;83.11
74242;BME280;62599;49.146;10.426;2023-07-28T10:42:04;95308.94;;;21.85;83.82
74242;BME280;62599;49.146;10.426;2023-07-28T10:44:33;95318.00;;;21.82;81.35
74242;BME280;62599;49.146;10.426;2023-07-28T10:46:59;95315.53;;;21.91;80.68
74242;BME280;62599;49.146;10.426;2023-07-28T10:49:25;95315.00;;;21.73;81.33
74242;BME280;62599;49.146;10.426;2023-07-28T10:51:51;95315.94;;;21.28;82.63
74242;BME280;62599;49.146;10.426;2023-07-28T10:54:17;95319.50;;;20.87;84.27
74242;BME280;62599;49.146;10.426;2023-07-28T10:56:48;95318.84;;;20.76;86.64
74242;BME280;62599;49.146;10.426;2023-07-28T10:59:14;95318.78;;;20.83;87.05
74242;BME280;62599;49.146;10.426;2023-07-28T11:01:41;95323.06;;;21.22;85.38
74242;BME280;62599;49.146;10.426;2023-07-28T11:06:34;95318.88;;;22.29;81.41
74242;BME280;62599;49.146;10.426;2023-07-28T11:09:21;95313.38;;;22.29;76.72
74242;BME280;62599;49.146;10.426;2023-07-28T11:11:49;95322.34;;;22.06;77.34
74242;BME280;62599;49.146;10.426;2023-07-28T11:14:16;95322.69;;;21.81;79.93
74242;BME280;62599;49.146;10.426;2023-07-28T11:16:42;95324.47;;;21.68;80.34
74242;BME280;62599;49.146;10.426;2023-07-28T11:19:13;95324.28;;;21.52;80.59
74242;BME280;62599;49.146;10.426;2023-07-28T11:21:48;95319.66;;;21.45;81.10
74242;BME280;62599;49.146;10.426;2023-07-28T11:24:18;95316.25;;;21.68;81.38
74242;BME280;62599;49.146;10.426;2023-07-28T11:26:44;95317.69;;;22.03;78.72
74242;BME280;62599;49.146;10.426;2023-07-28T11:29:11;95320.38;;;22.07;77.67
74242;BME280;62599;49.146;10.426;2023-07-28T11:31:41;95316.56;;;22.28;76.65
74242;BME280;62599;49.146;10.426;2023-07-28T11:34:36;95323.38;;;22.67;75.43
74242;BME280;62599;49.146;10.426;2023-07-28T11:37:04;95326.13;;;22.87;75.28
74242;BME280;62599;49.146;10.426;2023-07-28T11:39:30;95329.63;;;22.67;75.10
74242;BME280;62599;49.146;10.426;2023-07-28T11:41:59;95338.47;;;22.55;74.55
74242;BME280;62599;49.146;10.426;2023-07-28T11:44:28;95335.94;;;22.17;75.36
74242;BME280;62599;49.146;10.426;2023-07-28T11:46:53;95337.22;;;21.78;76.89
74242;BME280;62599;49.146;10.426;2023-07-28T11:49:21;95332.59;;;21.45;79.73
74242;BME280;62599;49.146;10.426;2023-07-28T11:51:55;95337.72;;;21.43;80.29
74242;BME280;62599;49.146;10.426;2023-07-28T11:54:25;95353.81;;;21.37;80.95
74242;BME280;62599;49.146;10.426;2023-07-28T11:56:53;95353.59;;;21.21;81.88
74242;BME280;62599;49.146;10.426;2023-07-28T11:59:25;95342.44;;;21.38;82.45
74242;BME280;62599;49.146;10.426;2023-07-28T12:01:55;95346.59;;;21.54;81.85
74242;BME280;62599;49.146;10.426;2023-07-28T12:04:31;95347.41;;;21.51;81.17
74242;BME280;62599;49.146;10.426;2023-07-28T12:07:05;95353.19;;;21.56;81.49
74242;BME280;62599;49.146;10.426;2023-07-28T12:09:32;95349.72;;;21.83;81.41
74242;BME280;62599;49.146;10.426;2023-07-28T12:11:58;95348.91;;;22.13;78.71
74242;BME280;62599;49.146;10.426;2023-07-28T12:14:31;95346.56;;;22.39;77.11
74242;BME280;62599;49.146;10.426;2023-07-28T12:16:59;95357.63;;;22.82;74.90
74242;BME280;62599;49.146;10.426;2023-07-28T12:19:25;95351.28;;;22.85;74.09
74242;BME280;62599;49.146;10.426;2023-07-28T12:21:50;95350.31;;;22.99;74.74
74242;BME280;62599;49.146;10.426;2023-07-28T12:24:16;95344.69;;;23.46;74.11
74242;BME280;62599;49.146;10.426;2023-07-28T12:26:41;95344.69;;;23.86;71.12
74242;BME280;62599;49.146;10.426;2023-07-28T12:29:07;95350.44;;;23.91;68.73
74242;BME280;62599;49.146;10.426;2023-07-28T12:31:32;95347.31;;;23.53;68.04
74242;BME280;62599;49.146;10.426;2023-07-28T12:33:58;95339.53;;;22.85;69.63
74242;BME280;62599;49.146;10.426;2023-07-28T12:36:23;95341.84;;;22.39;71.98
74242;BME280;62599;49.146;10.426;2023-07-28T12:38:49;95344.34;;;22.03;73.87
74242;BME280;62599;49.146;10.426;2023-07-28T12:41:14;95328.56;;;21.53;75.78
74242;BME280;62599;49.146;10.426;2023-07-28T12:43:39;95344.28;;;21.14;77.37
74242;BME280;62599;49.146;10.426;2023-07-28T12:46:05;95338.81;;;20.73;80.91